sensor_id;sensor_type;location;lat;lon;timestamp;temperature;humidity
18884;DHT22;9574;47.282;9.640;2022-11-15T00:01:20;6.80;99.90
18884;DHT22;9574;47.282;9.640;2022-11-15T00:03:56;6.80;99.90
18884;DHT22;9574;47.282;9.640;2022-11-15T00:06:23;6.90;99.90
18884;DHT22;9574;47.282;9.640;2022-11-15T00:08:58;6.90;99.90
18884;DHT22;9574;47.282;9.640;2022-11-15T00:11:27;6.90;99.90
18884;DHT22;9574;47.282;9.640;2022-11-15T00:14:02;6.80;99.90
18884;DHT22;9574;47.282;9.640;2022-11-15T00:16:32;6.80;99.90
18884;DHT22;9574;47.282;9.640;2022-11-15T00:19:01;6.70;99.90
18884;DHT22;9574;47.282;9.640;2022-11-15T00:21:33;6.70;99.90
18884;DHT22;9574;47.282;9.640;2022-11-15T00:24:00;6.60;99.90
18884;DHT22;9574;47.282;9.640;2022-11-15T00:26:29;6.60;99.90
18884;DHT22;9574;47.282;9.640;2022-11-15T00:28:58;6.50;99.90
18884;DHT22;9574;47.282;9.640;2022-11-15T00:31:25;6.50;99.90
18884;DHT22;9574;47.282;9.640;2022-11-15T00:34:02;6.50;99.90
18884;DHT22;9574;47.282;9.640;2022-11-15T00:36:32;6.40;99.90
18884;DHT22;9574;47.282;9.640;2022-11-15T00:39:04;6.40;99.90
18884;DHT22;9574;47.282;9.640;2022-11-15T00:41:32;6.30;99.90
18884;DHT22;9574;47.282;9.640;2022-11-15T00:44:01;6.40;99.90
18884;DHT22;9574;47.282;9.640;2022-11-15T00:46:28;6.50;99.90
18884;DHT22;9574;47.282;9.640;2022-11-15T00:49:02;6.60;99.90
18884;DHT22;9574;47.282;9.640;2022-11-15T00:51:31;6.80;99.90
18884;DHT22;9574;47.282;9.640;2022-11-15T00:54:01;6.80;99.90
18884;DHT22;9574;47.282;9.640;2022-11-15T00:56:29;6.90;99.90
18884;DHT22;9574;47.282;9.640;2022-11-15T00:59:00;6.90;99.90
18884;DHT22;9574;47.282;9.640;2022-11-15T01:01:30;6.90;99.90
18884;DHT22;9574;47.282;9.640;2022-11-15T01:03:57;6.90;99.90
18884;DHT22;9574;47.282;9.640;2022-11-15T01:06:28;6.90;99.90
18884;DHT22;9574;47.282;9.640;2022-11-15T01:08:56;6.90;99.90
18884;DHT22;9574;47.282;9.640;2022-11-15T01:11:24;6.80;99.90
18884;DHT22;9574;47.282;9.640;2022-11-15T01:13:51;6.70;99.90
18884;DHT22;9574;47.282;9.640;2022-11-15T01:16:18;6.60;99.90
18884;DHT22;9574;47.282;9.640;2022-11-15T01:18:54;6.50;99.90
18884;DHT22;9574;47.282;9.640;2022-11-15T01:21:25;6.20;99.90
18884;DHT22;9574;47.282;9.640;2022-11-15T01:23:58;6.20;99.90
18884;DHT22;9574;47.282;9.640;2022-11-15T01:26:27;6.30;99.90
18884;DHT22;9574;47.282;9.640;2022-11-15T01:28:55;6.60;99.90
18884;DHT22;9574;47.282;9.640;2022-11-15T01:31:25;6.60;99.90
18884;DHT22;9574;47.282;9.640;2022-11-15T01:33:56;6.60;99.90
18884;DHT22;9574;47.282;9.640;2022-11-15T01:36:24;6.50;99.90
18884;DHT22;9574;47.282;9.640;2022-11-15T01:38:53;6.50;99.90
18884;DHT22;9574;47.282;9.640;2022-11-15T01:41:27;6.40;99.90
18884;DHT22;9574;47.282;9.640;2022-11-15T01:46:45;6.20;99.90
18884;DHT22;9574;47.282;9.640;2022-11-15T01:49:17;6.10;99.90
18884;DHT22;9574;47.282;9.640;2022-11-15T01:51:48;6.00;99.90
18884;DHT22;9574;47.282;9.640;2022-11-15T01:54:23;5.90;99.90
18884;DHT22;9574;47.282;9.640;2022-11-15T01:56:58;6.00;99.90
18884;DHT22;9574;47.282;9.640;2022-11-15T01:59:30;6.30;99.90
18884;DHT22;9574;47.282;9.640;2022-11-15T02:02:03;6.60;99.90
18884;DHT22;9574;47.282;9.640;2022-11-15T02:04:35;6.60;99.90
18884;DHT22;9574;47.282;9.640;2022-11-15T02:07:06;6.50;99.90
18884;DHT22;9574;47.282;9.640;2022-11-15T02:09:38;6.50;99.90
18884;DHT22;9574;47.282;9.640;2022-11-15T02:12:15;6.40;99.90
18884;DHT22;9574;47.282;9.640;2022-11-15T02:14:50;6.30;99.90
18884;DHT22;9574;47.282;9.640;2022-11-15T02:17:31;6.00;99.90
18884;DHT22;9574;47.282;9.640;2022-11-15T02:20:26;5.80;99.90
18884;DHT22;9574;47.282;9.640;2022-11-15T02:23:19;5.70;99.90
18884;DHT22;9574;47.282;9.640;2022-11-15T02:26:09;5.60;99.90
18884;DHT22;9574;47.282;9.640;2022-11-15T02:28:50;5.70;99.90
18884;DHT22;9574;47.282;9.640;2022-11-15T02:31:28;5.80;99.90
18884;DHT22;9574;47.282;9.640;2022-11-15T02:34:04;5.80;99.90
18884;DHT22;9574;47.282;9.640;2022-11-15T02:36:40;5.80;99.90
18884;DHT22;9574;47.282;9.640;2022-11-15T02:39:15;5.80;99.90
18884;DHT22;9574;47.282;9.640;2022-11-15T02:41:50;5.90;99.90
18884;DHT22;9574;47.282;9.640;2022-11-15T02:44:24;6.00;99.90
18884;DHT22;9574;47.282;9.640;2022-11-15T02:46:56;6.10;99.90
18884;DHT22;9574;47.282;9.640;2022-11-15T02:49:46;6.00;99.90
18884;DHT22;9574;47.282;9.640;2022-11-15T02:52:17;5.90;99.90
18884;DHT22;9574;47.282;9.640;2022-11-15T02:54:53;5.90;99.90
18884;DHT22;9574;47.282;9.640;2022-11-15T02:57:41;5.90;99.90
18884;DHT22;9574;47.282;9.640;2022-11-15T03:00:13;5.90;99.90
18884;DHT22;9574;47.282;9.640;2022-11-15T03:03:10;5.80;99.90
18884;DHT22;9574;47.282;9.640;2022-11-15T03:05:44;5.70;99.90
18884;DHT22;9574;47.282;9.640;2022-11-15T03:08:21;5.70;99.90
18884;DHT22;9574;47.282;9.640;2022-11-15T03:11:01;5.80;99.90
18884;DHT22;9574;47.282;9.640;2022-11-15T03:13:37;5.90;99.90
18884;DHT22;9574;47.282;9.640;2022-11-15T03:16:10;5.80;99.90
18884;DHT22;9574;47.282;9.640;2022-11-15T03:18:49;5.80;99.90
18884;DHT22;9574;47.282;9.640;2022-11-15T03:21:20;5.80;99.90
18884;DHT22;9574;47.282;9.640;2022-11-15T03:23:49;5.70;99.90
18884;DHT22;9574;47.282;9.640;2022-11-15T03:26:23;5.60;99.90
18884;DHT22;9574;47.282;9.640;2022-11-15T03:28:54;5.40;99.90
18884;DHT22;9574;47.282;9.640;2022-11-15T03:31:27;5.30;99.90
18884;DHT22;9574;47.282;9.640;2022-11-15T03:34:22;5.40;99.90
18884;DHT22;9574;47.282;9.640;2022-11-15T03:36:55;5.80;99.90
18884;DHT22;9574;47.282;9.640;2022-11-15T03:39:22;5.70;99.90
18884;DHT22;9574;47.282;9.640;2022-11-15T03:42:02;5.50;99.90
18884;DHT22;9574;47.282;9.640;2022-11-15T03:44:39;5.50;99.90
18884;DHT22;9574;47.282;9.640;2022-11-15T03:47:11;5.40;99.90
18884;DHT22;9574;47.282;9.640;2022-11-15T03:49:45;5.30;99.90
18884;DHT22;9574;47.282;9.640;2022-11-15T03:52:17;5.30;99.90
18884;DHT22;9574;47.282;9.640;2022-11-15T03:54:56;5.30;99.90
18884;DHT22;9574;47.282;9.640;2022-11-15T03:57:27;5.30;99.90
18884;DHT22;9574;47.282;9.640;2022-11-15T03:59:57;5.30;99.90
18884;DHT22;9574;47.282;9.640;2022-11-15T04:02:27;5.30;99.90
18884;DHT22;9574;47.282;9.640;2022-11-15T04:04:55;5.10;99.90
18884;DHT22;9574;47.282;9.640;2022-11-15T04:07:23;5.20;99.90
18884;DHT22;9574;47.282;9.640;2022-11-15T04:09:53;5.10;99.90
18884;DHT22;9574;47.282;9.640;2022-11-15T04:12:29;5.10;99.90
18884;DHT22;9574;47.282;9.640;2022-11-15T04:15:04;5.10;99.90
18884;DHT22;9574;47.282;9.640;2022-11-15T04:17:40;5.00;99.90
18884;DHT22;9574;47.282;9.640;2022-11-15T04:20:18;5.00;99.90
18884;DHT22;9574;47.282;9.640;2022-11-15T04:23:04;5.10;99.90
18884;DHT22;9574;47.282;9.640;2022-11-15T04:25:55;5.10;99.90
18884;DHT22;9574;47.282;9.640;2022-11-15T04:28:23;5.20;99.90
18884;DHT22;9574;47.282;9.640;2022-11-15T04:30:54;5.30;99.90
18884;DHT22;9574;47.282;9.640;2022-11-15T04:33:21;5.30;99.90
18884;DHT22;9574;47.282;9.640;2022-11-15T04:35:56;5.30;99.90
18884;DHT22;9574;47.282;9.640;2022-11-15T04:38:42;5.40;99.90
18884;DHT22;9574;47.282;9.640;2022-11-15T04:41:11;5.40;99.90
18884;DHT22;9574;47.282;9.640;2022-11-15T04:43:38;5.40;99.90
18884;DHT22;9574;47.282;9.640;2022-11-15T04:46:06;5.40;99.90
18884;DHT22;9574;47.282;9.640;2022-11-15T04:48:34;5.30;99.90
18884;DHT22;9574;47.282;9.640;2022-11-15T04:51:05;5.30;99.90
18884;DHT22;9574;47.282;9.640;2022-11-15T04:53:32;5.30;99.90
18884;DHT22;9574;47.282;9.640;2022-11-15T04:56:03;5.30;99.90
18884;DHT22;9574;47.282;9.640;2022-11-15T04:58:30;5.20;99.90
18884;DHT22;9574;47.282;9.640;2022-11-15T05:00:58;5.20;99.90
18884;DHT22;9574;47.282;9.640;2022-11-15T05:03:29;5.20;99.90
18884;DHT22;9574;47.282;9.640;2022-11-15T05:06:16;5.10;99.90
18884;DHT22;9574;47.282;9.640;2022-11-15T05:08:47;5.20;99.90
18884;DHT22;9574;47.282;9.640;2022-11-15T05:11:15;5.20;99.90
18884;DHT22;9574;47.282;9.640;2022-11-15T05:13:48;5.10;99.90
18884;DHT22;9574;47.282;9.640;2022-11-15T05:16:19;5.10;99.90
18884;DHT22;9574;47.282;9.640;2022-11-15T05:18:46;5.10;99.90
18884;DHT22;9574;47.282;9.640;2022-11-15T05:21:17;5.00;99.90
18884;DHT22;9574;47.282;9.640;2022-11-15T05:23:45;5.00;99.90
18884;DHT22;9574;47.282;9.640;2022-11-15T05:26:18;5.00;99.90
18884;DHT22;9574;47.282;9.640;2022-11-15T05:28:52;4.90;99.90
18884;DHT22;9574;47.282;9.640;2022-11-15T05:31:20;4.90;99.90
18884;DHT22;9574;47.282;9.640;2022-11-15T05:33:49;4.80;99.90
18884;DHT22;9574;47.282;9.640;2022-11-15T05:36:21;4.80;99.90
18884;DHT22;9574;47.282;9.640;2022-11-15T05:38:52;4.80;99.90
18884;DHT22;9574;47.282;9.640;2022-11-15T05:41:24;4.90;99.90
18884;DHT22;9574;47.282;9.640;2022-11-15T05:43:53;4.80;99.90
18884;DHT22;9574;47.282;9.640;2022-11-15T05:46:24;4.80;99.90
18884;DHT22;9574;47.282;9.640;2022-11-15T05:48:53;4.80;99.90
18884;DHT22;9574;47.282;9.640;2022-11-15T05:51:27;4.70;99.90
18884;DHT22;9574;47.282;9.640;2022-11-15T05:53:56;4.60;99.90
18884;DHT22;9574;47.282;9.640;2022-11-15T05:56:23;4.50;99.90
18884;DHT22;9574;47.282;9.640;2022-11-15T05:58:52;4.50;99.90
18884;DHT22;9574;47.282;9.640;2022-11-15T06:01:20;4.50;99.90
18884;DHT22;9574;47.282;9.640;2022-11-15T06:03:48;4.50;99.90
18884;DHT22;9574;47.282;9.640;2022-11-15T06:06:18;4.50;99.90
18884;DHT22;9574;47.282;9.640;2022-11-15T06:08:48;4.50;99.90
18884;DHT22;9574;47.282;9.640;2022-11-15T06:11:16;4.50;99.90
18884;DHT22;9574;47.282;9.640;2022-11-15T06:13:44;4.40;99.90
18884;DHT22;9574;47.282;9.640;2022-11-15T06:16:17;4.40;99.90
18884;DHT22;9574;47.282;9.640;2022-11-15T06:18:44;4.50;99.90
18884;DHT22;9574;47.282;9.640;2022-11-15T06:21:12;4.50;99.90
18884;DHT22;9574;47.282;9.640;2022-11-15T06:23:39;4.50;99.90
18884;DHT22;9574;47.282;9.640;2022-11-15T06:26:08;4.50;99.90
18884;DHT22;9574;47.282;9.640;2022-11-15T06:28:39;4.60;99.90
18884;DHT22;9574;47.282;9.640;2022-11-15T06:31:07;4.60;99.90
18884;DHT22;9574;47.282;9.640;2022-11-15T06:33:39;4.60;99.90
18884;DHT22;9574;47.282;9.640;2022-11-15T06:36:10;4.60;99.90
18884;DHT22;9574;47.282;9.640;2022-11-15T06:38:39;4.80;99.90
18884;DHT22;9574;47.282;9.640;2022-11-15T06:41:09;4.80;99.90
18884;DHT22;9574;47.282;9.640;2022-11-15T06:43:37;4.60;99.90
18884;DHT22;9574;47.282;9.640;2022-11-15T06:46:10;4.60;99.90
18884;DHT22;9574;47.282;9.640;2022-11-15T06:48:39;4.60;99.90
18884;DHT22;9574;47.282;9.640;2022-11-15T06:51:09;4.50;99.90
18884;DHT22;9574;47.282;9.640;2022-11-15T06:53:40;4.50;99.90
18884;DHT22;9574;47.282;9.640;2022-11-15T06:56:13;4.50;99.90
18884;DHT22;9574;47.282;9.640;2022-11-15T06:58:42;4.50;99.90
18884;DHT22;9574;47.282;9.640;2022-11-15T07:01:12;4.40;99.90
18884;DHT22;9574;47.282;9.640;2022-11-15T07:03:41;4.40;99.90
18884;DHT22;9574;47.282;9.640;2022-11-15T07:06:09;4.40;99.90
18884;DHT22;9574;47.282;9.640;2022-11-15T07:08:38;4.40;99.90
18884;DHT22;9574;47.282;9.640;2022-11-15T07:11:13;4.40;99.90
18884;DHT22;9574;47.282;9.640;2022-11-15T07:13:43;4.60;99.90
18884;DHT22;9574;47.282;9.640;2022-11-15T07:16:13;4.90;99.90
18884;DHT22;9574;47.282;9.640;2022-11-15T07:18:44;5.10;99.90
18884;DHT22;9574;47.282;9.640;2022-11-15T07:21:14;5.20;99.90
18884;DHT22;9574;47.282;9.640;2022-11-15T07:23:41;5.20;99.90
18884;DHT22;9574;47.282;9.640;2022-11-15T07:26:08;5.40;99.90
18884;DHT22;9574;47.282;9.640;2022-11-15T07:28:37;5.20;99.90
18884;DHT22;9574;47.282;9.640;2022-11-15T07:31:08;5.00;99.90
18884;DHT22;9574;47.282;9.640;2022-11-15T07:33:39;4.90;99.90
18884;DHT22;9574;47.282;9.640;2022-11-15T07:36:08;4.80;99.90
18884;DHT22;9574;47.282;9.640;2022-11-15T07:38:37;4.80;99.90
18884;DHT22;9574;47.282;9.640;2022-11-15T07:41:05;4.80;99.90
18884;DHT22;9574;47.282;9.640;2022-11-15T07:43:33;4.90;99.90
18884;DHT22;9574;47.282;9.640;2022-11-15T07:46:06;5.00;99.90
18884;DHT22;9574;47.282;9.640;2022-11-15T07:48:35;5.20;99.90
18884;DHT22;9574;47.282;9.640;2022-11-15T07:51:03;5.40;99.90
18884;DHT22;9574;47.282;9.640;2022-11-15T07:53:33;5.60;99.90
18884;DHT22;9574;47.282;9.640;2022-11-15T07:56:05;5.80;99.90
18884;DHT22;9574;47.282;9.640;2022-11-15T07:58:32;6.10;99.90
18884;DHT22;9574;47.282;9.640;2022-11-15T08:01:05;6.40;99.90
18884;DHT22;9574;47.282;9.640;2022-11-15T08:03:33;6.70;99.90
18884;DHT22;9574;47.282;9.640;2022-11-15T08:06:00;7.10;99.90
18884;DHT22;9574;47.282;9.640;2022-11-15T08:08:30;7.40;99.90
18884;DHT22;9574;47.282;9.640;2022-11-15T08:11:00;7.70;99.90
18884;DHT22;9574;47.282;9.640;2022-11-15T08:13:27;8.00;99.90
18884;DHT22;9574;47.282;9.640;2022-11-15T08:15:58;8.30;99.90
18884;DHT22;9574;47.282;9.640;2022-11-15T08:18:31;8.80;99.90
18884;DHT22;9574;47.282;9.640;2022-11-15T08:21:01;9.10;99.90
18884;DHT22;9574;47.282;9.640;2022-11-15T08:23:30;9.40;99.90
18884;DHT22;9574;47.282;9.640;2022-11-15T08:26:03;9.70;99.90
18884;DHT22;9574;47.282;9.640;2022-11-15T08:28:32;10.10;99.90
18884;DHT22;9574;47.282;9.640;2022-11-15T08:31:02;10.30;99.90
18884;DHT22;9574;47.282;9.640;2022-11-15T08:33:34;10.50;99.90
18884;DHT22;9574;47.282;9.640;2022-11-15T08:36:05;10.80;99.90
18884;DHT22;9574;47.282;9.640;2022-11-15T08:38:34;10.90;99.90
18884;DHT22;9574;47.282;9.640;2022-11-15T08:41:04;11.00;99.90
18884;DHT22;9574;47.282;9.640;2022-11-15T08:43:35;11.10;99.90
18884;DHT22;9574;47.282;9.640;2022-11-15T08:46:10;11.20;99.90
18884;DHT22;9574;47.282;9.640;2022-11-15T08:48:41;11.40;99.90
18884;DHT22;9574;47.282;9.640;2022-11-15T08:51:10;11.50;99.90
18884;DHT22;9574;47.282;9.640;2022-11-15T08:53:38;11.60;99.90
18884;DHT22;9574;47.282;9.640;2022-11-15T08:56:11;11.60;99.90
18884;DHT22;9574;47.282;9.640;2022-11-15T08:58:40;11.90;99.90
18884;DHT22;9574;47.282;9.640;2022-11-15T09:01:15;12.30;99.90
18884;DHT22;9574;47.282;9.640;2022-11-15T09:03:46;12.90;99.90
18884;DHT22;9574;47.282;9.640;2022-11-15T09:06:13;13.20;99.90
18884;DHT22;9574;47.282;9.640;2022-11-15T09:08:47;13.20;99.90
18884;DHT22;9574;47.282;9.640;2022-11-15T09:11:17;13.60;99.90
18884;DHT22;9574;47.282;9.640;2022-11-15T09:13:50;14.00;99.90
18884;DHT22;9574;47.282;9.640;2022-11-15T09:16:18;14.10;99.90
18884;DHT22;9574;47.282;9.640;2022-11-15T09:18:49;14.30;99.90
18884;DHT22;9574;47.282;9.640;2022-11-15T09:21:16;14.50;99.90
18884;DHT22;9574;47.282;9.640;2022-11-15T09:23:45;14.70;99.90
18884;DHT22;9574;47.282;9.640;2022-11-15T09:26:16;14.50;99.90
18884;DHT22;9574;47.282;9.640;2022-11-15T09:28:43;13.90;99.90
18884;DHT22;9574;47.282;9.640;2022-11-15T09:31:13;13.90;99.90
18884;DHT22;9574;47.282;9.640;2022-11-15T09:33:43;14.20;99.90
18884;DHT22;9574;47.282;9.640;2022-11-15T09:36:16;14.50;99.90
18884;DHT22;9574;47.282;9.640;2022-11-15T09:38:47;14.70;99.90
18884;DHT22;9574;47.282;9.640;2022-11-15T09:41:33;14.90;99.90
18884;DHT22;9574;47.282;9.640;2022-11-15T09:44:14;15.10;99.90
18884;DHT22;9574;47.282;9.640;2022-11-15T09:46:54;15.30;99.90
18884;DHT22;9574;47.282;9.640;2022-11-15T09:49:23;15.40;99.90
18884;DHT22;9574;47.282;9.640;2022-11-15T09:51:54;15.20;99.90
18884;DHT22;9574;47.282;9.640;2022-11-15T09:54:28;15.50;99.90
18884;DHT22;9574;47.282;9.640;2022-11-15T09:57:03;15.60;99.90
18884;DHT22;9574;47.282;9.640;2022-11-15T09:59:51;15.70;99.90
18884;DHT22;9574;47.282;9.640;2022-11-15T10:02:33;15.90;99.90
18884;DHT22;9574;47.282;9.640;2022-11-15T10:05:04;16.00;99.90
18884;DHT22;9574;47.282;9.640;2022-11-15T10:07:44;16.20;99.90
18884;DHT22;9574;47.282;9.640;2022-11-15T10:10:17;16.50;99.90
18884;DHT22;9574;47.282;9.640;2022-11-15T10:12:51;16.60;99.90
18884;DHT22;9574;47.282;9.640;2022-11-15T10:15:26;16.70;99.90
18884;DHT22;9574;47.282;9.640;2022-11-15T10:18:14;16.60;99.90
18884;DHT22;9574;47.282;9.640;2022-11-15T10:20:50;16.40;99.90
18884;DHT22;9574;47.282;9.640;2022-11-15T10:23:24;15.90;99.90
18884;DHT22;9574;47.282;9.640;2022-11-15T10:25:57;15.60;99.90
18884;DHT22;9574;47.282;9.640;2022-11-15T10:28:28;15.30;99.90
18884;DHT22;9574;47.282;9.640;2022-11-15T10:31:01;15.30;99.90
18884;DHT22;9574;47.282;9.640;2022-11-15T10:33:32;15.60;99.90
18884;DHT22;9574;47.282;9.640;2022-11-15T10:36:18;15.90;99.90
18884;DHT22;9574;47.282;9.640;2022-11-15T10:38:58;16.20;99.90
18884;DHT22;9574;47.282;9.640;2022-11-15T10:41:36;16.10;99.90
18884;DHT22;9574;47.282;9.640;2022-11-15T10:44:26;15.80;99.90
18884;DHT22;9574;47.282;9.640;2022-11-15T10:47:21;15.90;99.90
18884;DHT22;9574;47.282;9.640;2022-11-15T10:49:57;16.10;99.90
18884;DHT22;9574;47.282;9.640;2022-11-15T10:52:31;16.40;99.90
18884;DHT22;9574;47.282;9.640;2022-11-15T10:55:20;16.60;99.90
18884;DHT22;9574;47.282;9.640;2022-11-15T10:57:53;16.60;99.90
18884;DHT22;9574;47.282;9.640;2022-11-15T11:00:29;16.70;99.90
18884;DHT22;9574;47.282;9.640;2022-11-15T11:03:00;16.80;99.90
18884;DHT22;9574;47.282;9.640;2022-11-15T11:05:31;16.90;99.90
18884;DHT22;9574;47.282;9.640;2022-11-15T11:08:16;16.80;99.90
18884;DHT22;9574;47.282;9.640;2022-11-15T11:10:56;16.60;99.90
18884;DHT22;9574;47.282;9.640;2022-11-15T11:13:27;16.30;99.90
18884;DHT22;9574;47.282;9.640;2022-11-15T11:18:46;16.30;99.90
18884;DHT22;9574;47.282;9.640;2022-11-15T11:21:18;16.20;99.90
18884;DHT22;9574;47.282;9.640;2022-11-15T11:23:52;16.30;99.90
18884;DHT22;9574;47.282;9.640;2022-11-15T11:26:40;16.30;99.90
18884;DHT22;9574;47.282;9.640;2022-11-15T11:29:20;16.10;99.90
18884;DHT22;9574;47.282;9.640;2022-11-15T11:31:58;16.00;99.90
18884;DHT22;9574;47.282;9.640;2022-11-15T11:34:41;16.00;99.90
18884;DHT22;9574;47.282;9.640;2022-11-15T11:37:17;15.60;99.90
18884;DHT22;9574;47.282;9.640;2022-11-15T11:39:56;15.30;99.90
18884;DHT22;9574;47.282;9.640;2022-11-15T11:42:38;15.30;99.90
18884;DHT22;9574;47.282;9.640;2022-11-15T11:45:18;15.40;99.90
18884;DHT22;9574;47.282;9.640;2022-11-15T11:47:47;15.10;99.90
18884;DHT22;9574;47.282;9.640;2022-11-15T11:50:19;15.00;99.90
18884;DHT22;9574;47.282;9.640;2022-11-15T11:52:57;14.70;99.90
18884;DHT22;9574;47.282;9.640;2022-11-15T11:55:28;14.60;99.90
18884;DHT22;9574;47.282;9.640;2022-11-15T11:58:04;14.40;99.90
18884;DHT22;9574;47.282;9.640;2022-11-15T12:00:35;14.30;99.90
18884;DHT22;9574;47.282;9.640;2022-11-15T12:03:09;14.10;99.90
18884;DHT22;9574;47.282;9.640;2022-11-15T12:05:41;14.00;99.90
18884;DHT22;9574;47.282;9.640;2022-11-15T12:08:22;13.80;99.90
18884;DHT22;9574;47.282;9.640;2022-11-15T12:10:55;13.60;99.90
18884;DHT22;9574;47.282;9.640;2022-11-15T12:13:28;13.60;99.90
18884;DHT22;9574;47.282;9.640;2022-11-15T12:16:05;13.50;99.90
18884;DHT22;9574;47.282;9.640;2022-11-15T12:18:33;13.40;99.90
18884;DHT22;9574;47.282;9.640;2022-11-15T12:21:03;13.40;99.90
18884;DHT22;9574;47.282;9.640;2022-11-15T12:23:37;13.40;99.90
18884;DHT22;9574;47.282;9.640;2022-11-15T12:26:09;13.30;99.90
18884;DHT22;9574;47.282;9.640;2022-11-15T12:28:43;13.20;99.90
18884;DHT22;9574;47.282;9.640;2022-11-15T12:31:16;13.20;99.90
18884;DHT22;9574;47.282;9.640;2022-11-15T12:33:47;13.20;99.90
18884;DHT22;9574;47.282;9.640;2022-11-15T12:36:35;13.10;99.90
18884;DHT22;9574;47.282;9.640;2022-11-15T12:39:05;12.90;99.90
18884;DHT22;9574;47.282;9.640;2022-11-15T12:41:36;12.80;99.90
18884;DHT22;9574;47.282;9.640;2022-11-15T12:44:13;12.80;99.90
18884;DHT22;9574;47.282;9.640;2022-11-15T12:47:22;12.70;99.90
18884;DHT22;9574;47.282;9.640;2022-11-15T12:49:50;12.70;99.90
18884;DHT22;9574;47.282;9.640;2022-11-15T12:52:22;12.70;99.90
18884;DHT22;9574;47.282;9.640;2022-11-15T12:55:08;12.60;99.90
18884;DHT22;9574;47.282;9.640;2022-11-15T12:57:52;12.60;99.90
18884;DHT22;9574;47.282;9.640;2022-11-15T13:00:42;12.40;99.90
18884;DHT22;9574;47.282;9.640;2022-11-15T13:03:29;12.30;99.90
18884;DHT22;9574;47.282;9.640;2022-11-15T13:06:08;12.20;99.90
18884;DHT22;9574;47.282;9.640;2022-11-15T13:08:47;12.30;99.90
18884;DHT22;9574;47.282;9.640;2022-11-15T13:11:47;12.20;99.90
18884;DHT22;9574;47.282;9.640;2022-11-15T13:14:48;12.20;99.90
18884;DHT22;9574;47.282;9.640;2022-11-15T13:17:43;12.10;99.90
18884;DHT22;9574;47.282;9.640;2022-11-15T13:20:26;12.00;99.90
18884;DHT22;9574;47.282;9.640;2022-11-15T13:23:02;11.90;99.90
18884;DHT22;9574;47.282;9.640;2022-11-15T13:28:43;11.90;99.90
18884;DHT22;9574;47.282;9.640;2022-11-15T13:31:28;11.90;99.90
18884;DHT22;9574;47.282;9.640;2022-11-15T13:34:02;11.80;99.90
18884;DHT22;9574;47.282;9.640;2022-11-15T13:36:32;11.80;99.90
18884;DHT22;9574;47.282;9.640;2022-11-15T13:39:02;11.80;99.90
18884;DHT22;9574;47.282;9.640;2022-11-15T13:41:32;11.90;99.90
18884;DHT22;9574;47.282;9.640;2022-11-15T13:44:01;11.70;99.90
18884;DHT22;9574;47.282;9.640;2022-11-15T13:46:32;11.50;99.90
18884;DHT22;9574;47.282;9.640;2022-11-15T13:49:07;11.50;99.90
18884;DHT22;9574;47.282;9.640;2022-11-15T13:51:43;11.60;99.90
18884;DHT22;9574;47.282;9.640;2022-11-15T13:54:17;11.60;99.90
18884;DHT22;9574;47.282;9.640;2022-11-15T13:56:48;11.70;99.90
18884;DHT22;9574;47.282;9.640;2022-11-15T13:59:20;11.60;99.90
18884;DHT22;9574;47.282;9.640;2022-11-15T14:01:53;11.50;99.90
18884;DHT22;9574;47.282;9.640;2022-11-15T14:04:25;11.50;99.90
18884;DHT22;9574;47.282;9.640;2022-11-15T14:06:57;11.60;99.90
18884;DHT22;9574;47.282;9.640;2022-11-15T14:09:35;11.50;99.90
18884;DHT22;9574;47.282;9.640;2022-11-15T14:12:26;11.50;99.90
18884;DHT22;9574;47.282;9.640;2022-11-15T14:14:54;11.60;99.90
18884;DHT22;9574;47.282;9.640;2022-11-15T14:17:39;11.50;99.90
18884;DHT22;9574;47.282;9.640;2022-11-15T14:20:32;11.30;99.90
18884;DHT22;9574;47.282;9.640;2022-11-15T14:23:01;11.40;99.90
18884;DHT22;9574;47.282;9.640;2022-11-15T14:25:30;11.20;99.90
18884;DHT22;9574;47.282;9.640;2022-11-15T14:28:15;11.20;99.90
18884;DHT22;9574;47.282;9.640;2022-11-15T14:30:45;11.30;99.90
18884;DHT22;9574;47.282;9.640;2022-11-15T14:33:21;11.20;99.90
18884;DHT22;9574;47.282;9.640;2022-11-15T14:35:54;11.10;99.90
18884;DHT22;9574;47.282;9.640;2022-11-15T14:38:22;11.10;99.90
18884;DHT22;9574;47.282;9.640;2022-11-15T14:40:50;11.10;99.90
18884;DHT22;9574;47.282;9.640;2022-11-15T14:43:17;11.10;99.90
18884;DHT22;9574;47.282;9.640;2022-11-15T14:45:46;11.00;99.90
18884;DHT22;9574;47.282;9.640;2022-11-15T14:48:16;11.00;99.90
18884;DHT22;9574;47.282;9.640;2022-11-15T14:50:46;11.00;99.90
18884;DHT22;9574;47.282;9.640;2022-11-15T14:53:24;10.90;99.90
18884;DHT22;9574;47.282;9.640;2022-11-15T14:55:54;10.90;99.90
18884;DHT22;9574;47.282;9.640;2022-11-15T14:58:22;10.90;99.90
18884;DHT22;9574;47.282;9.640;2022-11-15T15:00:50;11.00;99.90
18884;DHT22;9574;47.282;9.640;2022-11-15T15:03:19;11.00;99.90
18884;DHT22;9574;47.282;9.640;2022-11-15T15:05:46;11.00;99.90
18884;DHT22;9574;47.282;9.640;2022-11-15T15:08:18;11.00;99.90
18884;DHT22;9574;47.282;9.640;2022-11-15T15:10:46;11.00;99.90
18884;DHT22;9574;47.282;9.640;2022-11-15T15:13:17;10.90;99.90
18884;DHT22;9574;47.282;9.640;2022-11-15T15:15:47;10.90;99.90
18884;DHT22;9574;47.282;9.640;2022-11-15T15:18:15;10.90;99.90
18884;DHT22;9574;47.282;9.640;2022-11-15T15:20:53;10.90;99.90
18884;DHT22;9574;47.282;9.640;2022-11-15T15:23:21;11.00;99.90
18884;DHT22;9574;47.282;9.640;2022-11-15T15:25:57;11.00;99.90
18884;DHT22;9574;47.282;9.640;2022-11-15T15:28:25;11.20;99.90
18884;DHT22;9574;47.282;9.640;2022-11-15T15:30:52;11.30;99.90
18884;DHT22;9574;47.282;9.640;2022-11-15T15:33:20;11.20;99.90
18884;DHT22;9574;47.282;9.640;2022-11-15T15:35:49;11.20;99.90
18884;DHT22;9574;47.282;9.640;2022-11-15T15:38:17;11.00;99.90
18884;DHT22;9574;47.282;9.640;2022-11-15T15:40:44;10.90;99.90
18884;DHT22;9574;47.282;9.640;2022-11-15T15:43:12;10.80;99.90
18884;DHT22;9574;47.282;9.640;2022-11-15T15:45:42;10.70;99.90
18884;DHT22;9574;47.282;9.640;2022-11-15T15:48:14;10.70;99.90
18884;DHT22;9574;47.282;9.640;2022-11-15T15:50:43;10.60;99.90
18884;DHT22;9574;47.282;9.640;2022-11-15T15:53:13;10.60;99.90
18884;DHT22;9574;47.282;9.640;2022-11-15T15:55:40;10.50;99.90
18884;DHT22;9574;47.282;9.640;2022-11-15T15:58:08;10.60;99.90
18884;DHT22;9574;47.282;9.640;2022-11-15T16:00:36;10.50;99.90
18884;DHT22;9574;47.282;9.640;2022-11-15T16:03:05;10.50;99.90
18884;DHT22;9574;47.282;9.640;2022-11-15T16:05:32;10.70;99.90
18884;DHT22;9574;47.282;9.640;2022-11-15T16:07:59;10.90;99.90
18884;DHT22;9574;47.282;9.640;2022-11-15T16:10:28;11.20;99.90
18884;DHT22;9574;47.282;9.640;2022-11-15T16:12:56;11.10;99.90
18884;DHT22;9574;47.282;9.640;2022-11-15T16:15:27;11.30;99.90
18884;DHT22;9574;47.282;9.640;2022-11-15T16:17:59;11.10;99.90
18884;DHT22;9574;47.282;9.640;2022-11-15T16:20:33;11.00;99.90
18884;DHT22;9574;47.282;9.640;2022-11-15T16:23:03;11.10;99.90
18884;DHT22;9574;47.282;9.640;2022-11-15T16:25:37;10.90;99.90
18884;DHT22;9574;47.282;9.640;2022-11-15T16:28:19;10.70;99.90
18884;DHT22;9574;47.282;9.640;2022-11-15T16:30:48;10.50;99.90
18884;DHT22;9574;47.282;9.640;2022-11-15T16:33:20;10.40;99.90
18884;DHT22;9574;47.282;9.640;2022-11-15T16:35:48;10.30;99.90
18884;DHT22;9574;47.282;9.640;2022-11-15T16:38:16;10.30;99.90
18884;DHT22;9574;47.282;9.640;2022-11-15T16:40:45;10.30;99.90